Time;durP1;ratioP1;P1;durP2;ratioP2;P2;SDS_P1;SDS_P2;PMS_P1;PMS_P2;Temp;Humidity;BMP_temperature;BMP_pressure;BME280_temperature;BME280_humidity;BME280_pressure;Samples;Min_cycle;Max_cycle;Signal;HPM_P1;HPM_P2
2021/12/14 00:00:33;;;;;;;2.55;1.60;;;17.30;59.90;;;;;;5051483;28;20210;-57
2021/12/14 00:02:59;;;;;;;1.40;1.30;;;17.30;59.90;;;;;;5051368;28;20612;-58
2021/12/14 00:05:25;;;;;;;1.55;1.45;;;17.30;59.90;;;;;;5051411;28;20262;-58
2021/12/14 00:07:51;;;;;;;1.60;1.50;;;17.30;59.90;;;;;;5052167;28;20191;-58
2021/12/14 00:13:41;;;;;;;1.70;1.60;;;17.30;59.90;;;;;;5029559;28;20183;-58
2021/12/14 00:16:07;;;;;;;1.50;1.40;;;17.20;59.80;;;;;;5049632;28;20201;-59
2021/12/14 00:18:34;;;;;;;2.13;1.85;;;17.20;59.80;;;;;;5051386;28;20203;-60
2021/12/14 00:21:03;;;;;;;1.60;1.48;;;17.20;59.80;;;;;;5051592;28;20191;-60
2021/12/14 00:26:14;;;;;;;1.50;1.40;;;17.20;59.80;;;;;;5051463;28;20202;-59
2021/12/14 00:28:40;;;;;;;2.25;1.83;;;17.20;59.70;;;;;;5050040;28;20176;-58
2021/12/14 00:31:09;;;;;;;1.55;1.45;;;17.20;59.80;;;;;;5050790;28;20198;-58
2021/12/14 00:33:35;;;;;;;1.60;1.50;;;17.20;59.70;;;;;;5051120;28;20783;-59
2021/12/14 00:36:01;;;;;;;1.95;1.50;;;17.20;59.80;;;;;;5051831;28;20179;-58
2021/12/14 00:38:27;;;;;;;1.90;1.75;;;17.20;59.80;;;;;;5050531;28;20213;-58
2021/12/14 00:40:55;;;;;;;2.03;1.83;;;17.10;59.60;;;;;;5051559;28;20167;-58
2021/12/14 00:43:21;;;;;;;1.58;1.48;;;17.10;59.60;;;;;;5050431;28;20534;-58
2021/12/14 00:45:46;;;;;;;1.75;1.65;;;17.20;59.70;;;;;;5051047;28;20692;-58
2021/12/14 00:48:12;;;;;;;1.65;1.55;;;17.10;59.70;;;;;;5051418;28;20625;-60
2021/12/14 00:50:38;;;;;;;3.25;1.85;;;17.10;59.70;;;;;;5050497;28;20225;-58
2021/12/14 00:53:03;;;;;;;2.08;1.83;;;17.10;59.60;;;;;;5051865;28;20183;-57
2021/12/14 00:55:33;;;;;;;1.60;1.50;;;17.10;59.60;;;;;;5054626;28;20171;-58
2021/12/14 00:57:59;;;;;;;1.75;1.65;;;17.10;59.60;;;;;;5054170;28;20209;-58
2021/12/14 01:00:30;;;;;;;1.85;1.70;;;17.10;59.60;;;;;;5054354;28;20171;-59
2021/12/14 01:02:56;;;;;;;1.60;1.50;;;17.10;59.60;;;;;;5054978;28;20183;-58
2021/12/14 01:05:29;;;;;;;1.63;1.52;;;17.10;59.60;;;;;;5053840;28;20193;-59
2021/12/14 01:07:54;;;;;;;2.00;1.70;;;17.10;59.60;;;;;;5054744;28;20653;-59
2021/12/14 01:10:33;;;;;;;1.70;1.60;;;17.00;59.60;;;;;;5054237;28;20175;-59
2021/12/14 01:13:04;;;;;;;2.03;1.80;;;17.00;59.60;;;;;;5054133;28;20257;-60
2021/12/14 01:15:53;;;;;;;1.77;1.67;;;17.10;59.60;;;;;;5054527;28;20184;-60
2021/12/14 01:18:32;;;;;;;1.80;1.70;;;17.00;59.60;;;;;;5054241;28;20656;-59
2021/12/14 01:23:58;;;;;;;2.17;1.90;;;17.00;59.60;;;;;;5054605;28;20664;-59
2021/12/14 01:26:24;;;;;;;2.78;1.80;;;17.00;59.60;;;;;;5053343;28;20218;-59
2021/12/14 01:28:49;;;;;;;1.70;1.60;;;17.00;59.50;;;;;;5054317;28;20177;-59
2021/12/14 01:31:31;;;;;;;1.55;1.45;;;17.00;59.60;;;;;;5054339;28;20541;-59
2021/12/14 01:34:00;;;;;;;1.75;1.55;;;17.00;59.60;;;;;;5053957;28;20163;-59
2021/12/14 01:36:35;;;;;;;1.80;1.70;;;17.00;59.60;;;;;;5054207;28;20180;-59
2021/12/14 01:41:42;;;;;;;1.67;1.52;;;16.90;59.50;;;;;;5053077;28;20180;-60
2021/12/14 01:44:08;;;;;;;1.58;1.48;;;17.00;59.60;;;;;;5053794;28;20171;-59
2021/12/14 01:46:42;;;;;;;1.80;1.70;;;16.90;59.60;;;;;;5053460;28;20235;-59
2021/12/14 01:49:12;;;;;;;2.40;1.70;;;16.90;59.50;;;;;;5054067;28;20225;-59
2021/12/14 01:51:39;;;;;;;1.98;1.77;;;16.90;59.50;;;;;;5053725;28;20186;-59
2021/12/14 01:54:05;;;;;;;1.65;1.52;;;16.90;59.50;;;;;;5053083;28;20179;-59
2021/12/14 01:56:32;;;;;;;1.70;1.60;;;16.90;59.40;;;;;;5053320;28;20176;-59
2021/12/14 01:59:01;;;;;;;2.20;2.00;;;16.90;59.50;;;;;;5054079;28;20185;-59
2021/12/14 02:01:37;;;;;;;2.10;1.90;;;16.90;60.10;;;;;;5052623;28;20268;-59
2021/12/14 02:04:11;;;;;;;1.92;1.83;;;16.90;59.50;;;;;;5053693;28;20183;-59
2021/12/14 02:06:37;;;;;;;2.55;1.92;;;16.90;59.50;;;;;;5053200;28;20214;-59
2021/12/14 02:09:29;;;;;;;1.98;1.88;;;16.90;59.40;;;;;;5052757;28;20696;-60
2021/12/14 02:11:56;;;;;;;2.22;1.88;;;16.90;59.40;;;;;;5052315;28;20559;-59
2021/12/14 02:14:21;;;;;;;1.50;1.40;;;16.90;59.40;;;;;;5053089;28;20181;-59
2021/12/14 02:17:11;;;;;;;2.25;2.05;;;16.80;59.40;;;;;;5052634;28;20175;-59
2021/12/14 02:19:36;;;;;;;1.90;1.80;;;16.90;59.50;;;;;;5052960;28;20187;-60
2021/12/14 02:22:04;;;;;;;1.70;1.60;;;16.90;59.50;;;;;;5052536;28;20233;-59
2021/12/14 02:24:30;;;;;;;1.60;1.50;;;16.80;59.40;;;;;;5052868;28;20552;-59
2021/12/14 02:26:57;;;;;;;2.05;1.85;;;16.80;59.40;;;;;;5053058;28;20249;-59
2021/12/14 02:29:31;;;;;;;2.08;1.90;;;16.80;59.40;;;;;;5052102;28;20171;-59
2021/12/14 02:32:20;;;;;;;1.80;1.60;;;16.80;59.40;;;;;;5053106;28;20246;-59
2021/12/14 02:34:54;;;;;;;1.95;1.85;;;16.80;59.40;;;;;;5053289;28;20250;-59
2021/12/14 02:37:22;;;;;;;2.13;1.92;;;16.80;59.40;;;;;;5052072;28;20186;-59
2021/12/14 02:40:00;;;;;;;2.65;2.00;;;16.80;59.40;;;;;;5052744;28;20644;-59
2021/12/14 02:42:26;;;;;;;1.90;1.80;;;16.80;59.40;;;;;;5052729;28;20572;-59
2021/12/14 02:44:53;;;;;;;1.80;1.70;;;16.80;59.40;;;;;;5052064;28;20639;-58
2021/12/14 02:47:18;;;;;;;1.73;1.63;;;16.80;59.40;;;;;;5052197;28;20314;-59
2021/12/14 02:49:44;;;;;;;1.60;1.50;;;16.80;59.40;;;;;;5052820;28;20338;-59
2021/12/14 02:52:12;;;;;;;1.70;1.55;;;16.70;59.30;;;;;;5051881;28;20207;-59
2021/12/14 02:54:43;;;;;;;1.90;1.80;;;16.80;59.40;;;;;;5052421;28;20179;-59
2021/12/14 02:57:11;;;;;;;1.92;1.83;;;16.70;59.30;;;;;;5051693;28;20254;-59
2021/12/14 02:59:38;;;;;;;1.92;1.80;;;16.70;59.30;;;;;;5052337;28;20178;-59
2021/12/14 03:02:07;;;;;;;1.77;1.65;;;16.70;59.30;;;;;;5052685;28;20202;-58
2021/12/14 03:04:38;;;;;;;1.80;1.70;;;16.70;59.30;;;;;;5051414;28;20210;-59
2021/12/14 03:07:03;;;;;;;2.22;2.05;;;16.70;59.30;;;;;;5052118;28;20509;-58
2021/12/14 03:09:42;;;;;;;1.90;1.80;;;16.70;59.30;;;;;;5051993;28;20186;-58
2021/12/14 03:12:12;;;;;;;1.80;1.70;;;16.70;59.30;;;;;;5051802;28;20270;-59
2021/12/14 03:14:51;;;;;;;2.03;1.90;;;16.70;59.30;;;;;;5052084;28;20261;-60
2021/12/14 03:17:16;;;;;;;2.40;1.90;;;16.70;59.30;;;;;;5051845;28;20179;-59
2021/12/14 03:19:42;;;;;;;2.13;1.92;;;16.70;59.30;;;;;;5051007;28;20178;-60
2021/12/14 03:22:23;;;;;;;2.00;1.90;;;16.70;59.30;;;;;;5051961;28;20175;-59
2021/12/14 03:24:49;;;;;;;2.30;1.98;;;16.70;59.30;;;;;;5052174;28;20190;-59
2021/12/14 03:27:14;;;;;;;2.00;1.90;;;16.70;59.30;;;;;;5051220;28;20207;-59
2021/12/14 03:29:40;;;;;;;1.70;1.60;;;16.70;59.30;;;;;;5051609;28;20220;-59
2021/12/14 03:32:05;;;;;;;2.15;1.95;;;16.70;59.30;;;;;;5051942;28;20167;-59
2021/12/14 03:34:36;;;;;;;1.98;1.80;;;16.70;59.30;;;;;;5051060;28;20233;-59
2021/12/14 03:37:10;;;;;;;2.00;1.80;;;16.60;59.30;;;;;;5052195;28;20201;-59
2021/12/14 03:39:37;;;;;;;1.90;1.80;;;16.60;59.20;;;;;;5051010;28;20171;-60
2021/12/14 03:42:18;;;;;;;2.10;1.90;;;16.60;59.30;;;;;;5051936;28;20183;-59
2021/12/14 03:44:46;;;;;;;1.88;1.77;;;16.60;59.20;;;;;;5051955;28;20177;-59
2021/12/14 03:47:13;;;;;;;2.28;2.03;;;16.60;59.30;;;;;;5050951;28;20234;-59
2021/12/14 03:49:45;;;;;;;1.75;1.65;;;16.60;59.30;;;;;;5051699;28;20262;-59
2021/12/14 03:52:15;;;;;;;2.30;2.10;;;16.60;59.30;;;;;;5051862;28;20175;-59
2021/12/14 03:54:41;;;;;;;1.60;1.50;;;16.60;59.30;;;;;;5050751;28;20690;-59
2021/12/14 03:57:07;;;;;;;2.25;1.85;;;16.60;59.30;;;;;;5051746;28;20278;-59
2021/12/14 03:59:32;;;;;;;1.70;1.50;;;16.60;59.20;;;;;;5051356;28;20281;-60
2021/12/14 04:01:59;;;;;;;1.70;1.60;;;16.60;59.20;;;;;;5051214;28;20179;-59
2021/12/14 04:04:36;;;;;;;1.67;1.58;;;16.60;59.20;;;;;;5051342;28;20616;-60
2021/12/14 04:07:03;;;;;;;1.80;1.70;;;16.60;59.30;;;;;;5051598;28;20652;-59
2021/12/14 04:09:30;;;;;;;2.20;2.00;;;16.60;59.20;;;;;;5050717;28;20266;-59
2021/12/14 04:11:56;;;;;;;1.83;1.73;;;16.50;59.20;;;;;;5051648;28;20183;-60
2021/12/14 04:14:22;;;;;;;2.33;2.17;;;16.60;59.20;;;;;;5050550;28;20245;-59
2021/12/14 04:16:49;;;;;;;2.42;2.22;;;16.60;59.30;;;;;;5051760;28;20197;-59
2021/12/14 04:19:20;;;;;;;2.40;2.20;;;16.60;59.20;;;;;;5051596;28;20198;-60
2021/12/14 04:21:46;;;;;;;2.67;2.47;;;16.60;59.20;;;;;;5050854;28;20534;-59
2021/12/14 04:24:12;;;;;;;2.25;2.10;;;16.60;59.20;;;;;;5051551;28;20207;-59
2021/12/14 04:26:43;;;;;;;1.73;1.63;;;16.50;59.20;;;;;;5050922;28;20325;-59
2021/12/14 04:29:09;;;;;;;2.00;1.90;;;16.50;59.20;;;;;;5053700;28;20206;-59
2021/12/14 04:31:35;;;;;;;1.88;1.77;;;16.50;59.20;;;;;;5055144;28;20194;-59
2021/12/14 04:34:00;;;;;;;2.15;1.95;;;16.60;59.20;;;;;;5055368;28;20685;-58
2021/12/14 04:36:27;;;;;;;2.03;1.92;;;16.50;59.20;;;;;;5054058;28;20294;-60
2021/12/14 04:39:21;;;;;;;1.77;1.67;;;16.50;59.30;;;;;;5055139;28;20626;-59
2021/12/14 04:53:00;;;;;;;1.88;1.77;;;16.50;59.20;;;;;;5054913;28;20537;-60
2021/12/14 04:55:26;;;;;;;2.42;2.22;;;16.50;59.20;;;;;;5054688;28;20257;-59
2021/12/14 04:57:51;;;;;;;1.70;1.60;;;16.50;59.20;;;;;;5053992;28;20537;-59
2021/12/14 05:00:23;;;;;;;1.70;1.60;;;16.50;59.20;;;;;;5055078;28;20175;-59
2021/12/14 05:02:49;;;;;;;2.47;2.28;;;16.50;59.20;;;;;;5054873;28;20209;-59
2021/12/14 05:05:24;;;;;;;2.30;2.10;;;16.50;59.20;;;;;;5054082;28;20203;-58
2021/12/14 05:10:34;;;;;;;2.00;1.80;;;16.50;59.20;;;;;;5053908;28;20198;-59
2021/12/14 05:13:00;;;;;;;2.30;2.10;;;16.40;59.10;;;;;;5054316;28;20511;-60
2021/12/14 05:15:25;;;;;;;1.63;1.52;;;16.40;59.10;;;;;;5054426;28;20171;-59
2021/12/14 05:17:51;;;;;;;1.85;1.75;;;16.40;59.10;;;;;;5053646;28;20605;-59
2021/12/14 05:20:17;;;;;;;2.00;1.80;;;16.40;59.10;;;;;;5054416;28;20188;-58
2021/12/14 05:22:44;;;;;;;1.92;1.83;;;16.40;59.10;;;;;;5054059;28;20171;-59
2021/12/14 05:25:26;;;;;;;2.15;2.05;;;16.40;59.10;;;;;;5053486;28;20282;-59
2021/12/14 05:27:58;;;;;;;1.95;1.85;;;16.40;59.10;;;;;;5054426;28;20202;-59
2021/12/14 05:30:29;;;;;;;2.17;1.98;;;16.40;59.10;;;;;;5053991;28;20274;-59
2021/12/14 05:32:57;;;;;;;2.00;1.80;;;16.40;59.10;;;;;;5053484;28;20199;-59
2021/12/14 05:35:25;;;;;;;1.95;1.83;;;16.40;59.10;;;;;;5054049;28;20254;-59
2021/12/14 05:37:54;;;;;;;1.60;1.50;;;16.40;59.20;;;;;;5054260;28;20183;-58
2021/12/14 05:40:38;;;;;;;2.08;1.88;;;16.40;59.10;;;;;;5052952;28;20171;-58
2021/12/14 05:43:12;;;;;;;1.80;1.70;;;16.40;59.10;;;;;;5054012;28;20549;-59
2021/12/14 05:45:43;;;;;;;1.70;1.60;;;16.40;59.10;;;;;;5053331;28;20697;-59
2021/12/14 05:48:10;;;;;;;2.00;1.90;;;16.40;59.10;;;;;;5053730;28;20476;-58
2021/12/14 05:50:45;;;;;;;1.60;1.50;;;16.40;59.10;;;;;;5053750;28;20635;-58
2021/12/14 05:53:25;;;;;;;2.20;2.00;;;16.40;59.10;;;;;;5053445;28;20178;-59
2021/12/14 05:55:50;;;;;;;2.00;1.83;;;16.30;59.10;;;;;;5053839;28;20605;-59
2021/12/14 05:58:19;;;;;;;1.77;1.67;;;16.40;59.10;;;;;;5053752;28;20257;-59
2021/12/14 06:00:52;;;;;;;1.65;1.55;;;16.40;59.10;;;;;;5053124;28;20180;-59
2021/12/14 06:03:21;;;;;;;1.73;1.63;;;16.40;59.10;;;;;;5053954;28;20228;-57
2021/12/14 06:05:47;;;;;;;1.83;1.73;;;16.40;59.10;;;;;;5053820;28;20199;-60
2021/12/14 06:08:21;;;;;;;1.80;1.70;;;16.30;59.10;;;;;;5052883;28;20237;-59
2021/12/14 06:10:46;;;;;;;1.77;1.67;;;16.30;59.00;;;;;;5053590;28;20179;-58
2021/12/14 06:13:12;;;;;;;1.55;1.45;;;16.30;59.00;;;;;;5053639;28;20488;-59
2021/12/14 06:15:37;;;;;;;2.08;1.90;;;16.30;59.00;;;;;;5052548;28;20171;-59
2021/12/14 06:18:03;;;;;;;1.75;1.65;;;16.30;59.10;;;;;;5053254;28;20641;-59
2021/12/14 06:20:28;;;;;;;1.65;1.55;;;16.30;59.10;;;;;;5053184;28;20175;-59
2021/12/14 06:22:54;;;;;;;2.28;2.10;;;16.30;59.10;;;;;;5052652;28;20182;-58
2021/12/14 06:25:22;;;;;;;1.58;1.48;;;16.30;59.10;;;;;;5052911;28;20171;-60
2021/12/14 06:27:48;;;;;;;2.00;1.90;;;16.30;59.10;;;;;;5053429;28;20218;-58
2021/12/14 06:30:25;;;;;;;1.77;1.67;;;16.30;59.10;;;;;;5052624;28;20174;-58
2021/12/14 06:32:53;;;;;;;1.83;1.73;;;16.30;59.10;;;;;;5053500;28;20189;-58
2021/12/14 06:35:24;;;;;;;2.03;1.85;;;16.30;59.00;;;;;;5052352;28;20175;-58
2021/12/14 06:40:51;;;;;;;1.92;1.83;;;16.30;59.10;;;;;;5053033;28;20502;-58
2021/12/14 06:43:21;;;;;;;1.63;1.52;;;16.30;59.10;;;;;;5052153;28;20187;-58
2021/12/14 06:45:55;;;;;;;1.63;1.52;;;16.20;59.00;;;;;;5052534;28;20689;-59
2021/12/14 06:48:32;;;;;;;1.63;1.52;;;16.30;59.10;;;;;;5052584;28;20167;-59
2021/12/14 06:51:36;;;;;;;1.80;1.70;;;16.20;59.00;;;;;;5051292;28;20265;-58
2021/12/14 06:54:12;;;;;;;1.90;1.80;;;16.20;59.00;;;;;;5052201;28;20202;-60
2021/12/14 06:56:37;;;;;;;1.90;1.80;;;16.20;59.00;;;;;;5051583;28;20179;-59
2021/12/14 06:59:05;;;;;;;2.10;1.95;;;16.20;59.00;;;;;;5052725;28;20198;-59
2021/12/14 07:01:43;;;;;;;1.83;1.73;;;16.20;59.10;;;;;;5052240;28;20250;-60
2021/12/14 07:04:14;;;;;;;1.60;1.50;;;16.20;59.10;;;;;;5051716;28;20269;-59
2021/12/14 07:06:48;;;;;;;1.40;1.38;;;16.30;59.10;;;;;;5052056;28;20688;-59
2021/12/14 07:09:15;;;;;;;1.63;1.52;;;16.30;59.10;;;;;;5052331;28;20234;-59
2021/12/14 07:11:42;;;;;;;1.55;1.45;;;16.30;59.20;;;;;;5051462;28;20210;-60
2021/12/14 07:14:28;;;;;;;1.60;1.50;;;16.40;59.10;;;;;;5052099;28;20683;-60
2021/12/14 07:16:55;;;;;;;1.60;1.50;;;16.50;59.00;;;;;;5052139;28;20175;-60
2021/12/14 07:19:48;;;;;;;1.40;1.30;;;16.40;58.80;;;;;;5050993;28;20182;-59
2021/12/14 07:22:24;;;;;;;1.85;1.67;;;16.40;58.90;;;;;;5052162;28;20657;-59
2021/12/14 07:25:20;;;;;;;1.70;1.60;;;16.40;58.90;;;;;;5051418;28;20209;-59
2021/12/14 07:27:46;;;;;;;1.48;1.38;;;16.40;59.00;;;;;;5051366;28;20296;-60
2021/12/14 07:30:42;;;;;;;1.35;1.25;;;16.40;58.90;;;;;;5051844;28;20638;-59
2021/12/14 07:33:11;;;;;;;1.50;1.40;;;16.40;59.00;;;;;;5049312;28;20189;-60
2021/12/14 07:35:47;;;;;;;1.35;1.25;;;16.40;59.00;;;;;;5051603;28;20183;-59
2021/12/14 07:38:28;;;;;;;2.10;1.42;;;16.50;59.00;;;;;;5051926;28;20671;-59
2021/12/14 07:40:58;;;;;;;1.50;1.40;;;16.60;58.90;;;;;;5051746;28;20699;-59
2021/12/14 07:43:27;;;;;;;1.52;1.42;;;16.70;58.70;;;;;;5051553;28;20532;-59
2021/12/14 07:45:52;;;;;;;1.55;1.45;;;16.80;59.30;;;;;;5051073;28;20573;-59
2021/12/14 07:48:19;;;;;;;1.55;1.45;;;17.00;58.40;;;;;;5051910;28;20621;-58
2021/12/14 07:50:49;;;;;;;1.20;1.20;;;17.20;58.00;;;;;;5051710;28;20171;-67
2021/12/14 07:53:15;;;;;;;1.30;1.25;;;17.50;57.80;;;;;;5050807;28;20609;-65
2021/12/14 07:55:43;;;;;;;1.60;1.50;;;17.70;57.50;;;;;;5049923;28;20206;-65
2021/12/14 07:58:09;;;;;;;2.15;1.30;;;18.00;57.20;;;;;;5051639;28;20175;-66
2021/12/14 08:00:35;;;;;;;2.33;1.38;;;18.30;56.60;;;;;;5050478;28;20170;-67
2021/12/14 08:03:01;;;;;;;1.98;1.25;;;18.50;56.20;;;;;;5053773;28;20179;-67
2021/12/14 08:05:29;;;;;;;1.67;1.30;;;18.70;56.10;;;;;;5055097;28;20194;-67
2021/12/14 08:08:02;;;;;;;3.45;1.45;;;18.80;55.80;;;;;;5053379;28;20258;-67
2021/12/14 08:10:32;;;;;;;2.05;1.42;;;18.90;55.70;;;;;;5055223;28;20648;-66
2021/12/14 08:13:09;;;;;;;2.45;1.33;;;18.90;55.70;;;;;;5055448;28;20185;-66
2021/12/14 08:15:40;;;;;;;1.70;1.60;;;18.90;55.60;;;;;;5053367;28;20335;-66
2021/12/14 08:18:10;;;;;;;1.00;1.00;;;19.00;55.60;;;;;;5055372;28;20196;-66
2021/12/14 08:20:53;;;;;;;3.05;1.30;;;19.00;55.60;;;;;;5054413;28;20174;-65
2021/12/14 08:23:23;;;;;;;2.83;1.30;;;19.00;55.80;;;;;;5055034;28;20593;-64
2021/12/14 08:25:51;;;;;;;1.88;1.33;;;19.00;55.80;;;;;;5055067;28;20211;-64
2021/12/14 08:28:21;;;;;;;2.35;1.55;;;19.00;55.90;;;;;;5054392;28;20180;-64
2021/12/14 08:30:57;;;;;;;1.70;1.45;;;18.90;55.90;;;;;;5055159;28;20505;-64
2021/12/14 08:33:23;;;;;;;2.92;1.38;;;18.80;56.10;;;;;;5054726;28;20244;-66
2021/12/14 08:35:49;;;;;;;1.55;1.30;;;18.70;56.30;;;;;;5054238;28;20275;-66
2021/12/14 08:38:17;;;;;;;2.95;1.40;;;18.60;56.50;;;;;;5054846;28;20206;-65
2021/12/14 08:40:45;;;;;;;2.72;1.48;;;18.50;56.80;;;;;;5054471;28;20269;-64
2021/12/14 08:43:19;;;;;;;1.40;1.30;;;18.50;56.90;;;;;;5053993;28;20632;-65
2021/12/14 08:45:59;;;;;;;1.67;1.55;;;18.40;57.10;;;;;;5054741;28;20309;-65
2021/12/14 08:48:31;;;;;;;1.50;1.40;;;18.40;56.90;;;;;;5054361;28;20551;-64
2021/12/14 08:50:58;;;;;;;1.40;1.30;;;18.40;56.90;;;;;;5053917;28;20645;-64
2021/12/14 08:53:28;;;;;;;1.50;1.40;;;18.50;57.00;;;;;;5054155;28;20617;-65
2021/12/14 08:55:55;;;;;;;2.13;1.83;;;18.50;56.80;;;;;;5054014;28;20283;-65
2021/12/14 08:58:20;;;;;;;3.00;1.85;;;18.50;56.80;;;;;;5054186;28;20587;-65
2021/12/14 09:00:48;;;;;;;1.42;1.33;;;18.50;56.70;;;;;;5054146;28;20194;-65
2021/12/14 09:03:20;;;;;;;1.30;1.20;;;18.50;56.70;;;;;;5053730;28;20624;-65
2021/12/14 09:05:47;;;;;;;2.08;1.60;;;18.50;56.70;;;;;;5054267;28;20179;-67
2021/12/14 09:08:17;;;;;;;1.45;1.35;;;18.50;56.90;;;;;;5054361;28;20683;-65
2021/12/14 09:10:43;;;;;;;1.75;1.65;;;18.30;57.00;;;;;;5053501;28;20186;-65
2021/12/14 09:13:10;;;;;;;2.63;1.70;;;18.30;57.30;;;;;;5054138;28;20652;-66
2021/12/14 09:15:40;;;;;;;2.00;1.80;;;18.20;57.30;;;;;;5053348;28;20175;-66
2021/12/14 09:18:06;;;;;;;2.13;1.40;;;18.20;57.30;;;;;;5053533;28;20257;-64
2021/12/14 09:20:38;;;;;;;2.08;1.73;;;18.20;57.40;;;;;;5052511;28;20195;-64
2021/12/14 09:23:08;;;;;;;1.83;1.73;;;18.30;57.30;;;;;;5054287;28;20206;-64
2021/12/14 09:25:34;;;;;;;1.75;1.65;;;18.30;57.20;;;;;;5052864;28;20650;-64
2021/12/14 09:28:00;;;;;;;1.65;1.55;;;18.30;57.10;;;;;;5053907;28;20197;-63
2021/12/14 09:30:27;;;;;;;1.48;1.38;;;18.40;57.10;;;;;;5053301;28;20549;-64
2021/12/14 09:32:53;;;;;;;1.98;1.70;;;18.40;56.90;;;;;;5052851;28;20175;-64
2021/12/14 09:35:21;;;;;;;1.70;1.60;;;18.40;56.80;;;;;;5053795;28;20171;-65
2021/12/14 09:37:47;;;;;;;1.70;1.60;;;18.40;56.90;;;;;;5053810;28;20190;-65
2021/12/14 09:40:21;;;;;;;2.53;1.90;;;18.30;57.00;;;;;;5053049;28;20187;-64
2021/12/14 09:42:46;;;;;;;2.25;1.70;;;18.30;57.20;;;;;;5053617;28;20179;-64
2021/12/14 09:45:34;;;;;;;2.92;1.67;;;18.20;57.30;;;;;;5053004;28;20236;-65
2021/12/14 09:48:00;;;;;;;2.05;1.90;;;18.20;57.60;;;;;;5053824;28;20202;-64
2021/12/14 09:50:29;;;;;;;2.33;1.90;;;18.10;57.60;;;;;;5053348;28;20250;-65
2021/12/14 09:52:55;;;;;;;4.80;2.47;;;18.10;57.50;;;;;;5052998;28;20254;-64
2021/12/14 09:55:23;;;;;;;3.25;1.88;;;18.20;57.50;;;;;;5053193;28;20268;-65
2021/12/14 09:57:57;;;;;;;2.38;2.17;;;18.20;57.60;;;;;;5053303;28;20614;-66
2021/12/14 10:00:27;;;;;;;1.77;1.67;;;18.30;57.50;;;;;;5052508;28;20186;-64
2021/12/14 10:02:53;;;;;;;2.53;1.58;;;18.40;57.40;;;;;;5053396;28;20183;-64
2021/12/14 10:05:27;;;;;;;2.78;1.38;;;18.40;57.30;;;;;;5053095;28;20179;-66
2021/12/14 10:07:55;;;;;;;3.85;1.75;;;18.40;57.30;;;;;;5052657;28;20213;-64
2021/12/14 10:10:20;;;;;;;2.17;1.92;;;18.40;57.50;;;;;;5052751;28;20179;-63
2021/12/14 10:12:49;;;;;;;2.20;2.00;;;18.30;57.60;;;;;;5053544;28;20179;-62
2021/12/14 10:15:24;;;;;;;2.15;1.90;;;18.20;57.70;;;;;;5052568;28;20171;-61
2021/12/14 10:17:50;;;;;;;1.98;1.88;;;18.20;57.90;;;;;;5053119;28;20174;-66
2021/12/14 10:20:20;;;;;;;5.13;2.38;;;18.20;58.10;;;;;;5052099;28;20346;-64
2021/12/14 10:22:46;;;;;;;3.45;1.92;;;18.20;58.20;;;;;;5052952;28;20175;-69
2021/12/14 10:25:15;;;;;;;3.58;2.40;;;18.30;58.20;;;;;;5052398;28;20179;-64
2021/12/14 10:27:40;;;;;;;2.15;1.90;;;18.30;58.10;;;;;;5050897;28;20680;-63
2021/12/14 10:30:23;;;;;;;4.53;2.10;;;18.30;58.00;;;;;;5053067;28;20175;-64
2021/12/14 10:32:49;;;;;;;2.55;2.10;;;18.30;58.00;;;;;;5052913;28;20178;-66
2021/12/14 10:35:21;;;;;;;5.20;2.50;;;18.30;57.90;;;;;;5051966;28;20175;-67
2021/12/14 10:37:54;;;;;;;5.82;2.38;;;18.30;58.20;;;;;;5052444;28;20232;-66
2021/12/14 10:43:13;;;;;;;2.47;2.28;;;18.20;58.20;;;;;;5051983;28;20304;-65
2021/12/14 10:45:41;;;;;;;3.40;2.33;;;18.20;58.30;;;;;;5051961;28;20237;-65
2021/12/14 10:48:07;;;;;;;2.50;2.10;;;18.20;58.30;;;;;;5052433;28;20192;-65
2021/12/14 10:50:32;;;;;;;3.08;2.70;;;18.20;58.40;;;;;;5051551;28;20486;-64
2021/12/14 10:52:59;;;;;;;2.80;2.53;;;18.20;58.30;;;;;;5052493;28;20650;-65
2021/12/14 10:55:28;;;;;;;3.55;2.47;;;18.20;58.30;;;;;;5051116;28;20172;-64
2021/12/14 10:57:54;;;;;;;2.50;2.30;;;18.20;58.20;;;;;;5052215;28;20183;-65
2021/12/14 11:00:29;;;;;;;2.50;2.30;;;18.20;58.30;;;;;;5051595;28;20167;-65
2021/12/14 11:03:00;;;;;;;2.38;2.17;;;18.20;58.40;;;;;;5051307;28;20457;-66
2021/12/14 11:05:27;;;;;;;2.40;2.13;;;18.10;58.40;;;;;;5050585;28;20175;-64
2021/12/14 11:07:53;;;;;;;2.03;1.80;;;18.10;58.60;;;;;;5052026;28;20215;-63
2021/12/14 11:10:30;;;;;;;2.80;2.05;;;18.10;58.60;;;;;;5051292;28;20261;-63
2021/12/14 11:13:10;;;;;;;3.35;2.50;;;18.10;58.70;;;;;;5052012;28;20186;-63
2021/12/14 11:15:39;;;;;;;3.08;2.88;;;18.10;58.70;;;;;;5051898;28;20179;-64
2021/12/14 11:18:10;;;;;;;2.70;2.50;;;18.10;58.60;;;;;;5051360;28;20260;-64
2021/12/14 11:20:44;;;;;;;2.72;2.53;;;18.20;58.60;;;;;;5051686;28;20185;-67
2021/12/14 11:23:17;;;;;;;3.05;2.53;;;18.20;58.50;;;;;;5052022;28;20177;-68
2021/12/14 11:25:49;;;;;;;3.67;2.10;;;18.10;58.70;;;;;;5050938;28;20178;-67
2021/12/14 11:28:25;;;;;;;3.58;2.72;;;18.10;58.80;;;;;;5052119;28;20455;-64
2021/12/14 11:30:56;;;;;;;8.25;3.30;;;18.00;58.80;;;;;;5051239;28;20266;-65
2021/12/14 11:33:44;;;;;;;4.57;3.78;;;18.00;59.00;;;;;;5051355;28;20202;-67
2021/12/14 11:36:15;;;;;;;5.00;4.32;;;17.90;59.00;;;;;;5051996;28;20270;-66
2021/12/14 11:38:48;;;;;;;5.53;3.70;;;17.80;59.00;;;;;;5050581;28;20213;-66
2021/12/14 11:41:37;;;;;;;6.00;4.32;;;17.80;58.90;;;;;;5051626;28;20305;-66
2021/12/14 11:44:11;;;;;;;5.10;4.57;;;17.90;58.80;;;;;;5051533;28;20183;-65
2021/12/14 11:46:51;;;;;;;4.53;4.10;;;17.90;58.80;;;;;;5050266;28;20298;-65
2021/12/14 11:49:21;;;;;;;5.95;3.78;;;18.00;58.70;;;;;;5051505;28;20708;-66
2021/12/14 11:51:47;;;;;;;6.03;3.92;;;18.00;58.60;;;;;;5050970;28;20298;-65
2021/12/14 11:54:15;;;;;;;4.45;3.45;;;18.00;58.50;;;;;;5051374;28;20606;-65
2021/12/14 11:56:41;;;;;;;5.93;4.18;;;18.00;58.60;;;;;;5051123;28;20202;-65
2021/12/14 11:59:07;;;;;;;4.68;3.60;;;18.00;58.70;;;;;;5050591;28;20198;-65
2021/12/14 12:01:41;;;;;;;3.95;3.58;;;17.90;58.70;;;;;;5051206;28;20657;-64
2021/12/14 12:04:12;;;;;;;4.55;4.15;;;17.90;58.90;;;;;;5051570;28;20236;-66
2021/12/14 12:09:31;;;;;;;4.65;4.20;;;17.80;59.20;;;;;;5051415;28;20170;-65
2021/12/14 12:12:36;;;;;;;4.82;3.70;;;17.80;59.30;;;;;;5051642;28;20179;-64
2021/12/14 12:15:18;;;;;;;7.40;4.20;;;17.80;59.20;;;;;;5050597;28;20179;-64
2021/12/14 12:17:56;;;;;;;6.20;3.80;;;17.70;59.30;;;;;;5051430;28;20179;-65
2021/12/14 12:20:43;;;;;;;7.18;4.55;;;17.70;59.40;;;;;;5050400;28;20198;-65
2021/12/14 12:23:11;;;;;;;4.85;4.35;;;17.60;59.40;;;;;;5051420;28;20536;-65
2021/12/14 12:25:58;;;;;;;4.90;4.43;;;17.60;59.50;;;;;;5050975;28;20175;-65
2021/12/14 12:28:32;;;;;;;4.22;3.83;;;17.60;59.50;;;;;;5050409;28;20225;-65
2021/12/14 12:31:06;;;;;;;5.18;4.25;;;17.60;59.50;;;;;;5051219;28;20186;-65
2021/12/14 12:33:40;;;;;;;5.45;4.50;;;17.60;59.60;;;;;;5050879;28;20646;-66
2021/12/14 12:36:23;;;;;;;6.60;4.07;;;17.60;59.50;;;;;;5050811;28;20225;-67
2021/12/14 12:38:48;;;;;;;6.50;5.03;;;17.70;59.40;;;;;;5051344;28;20179;-66
2021/12/14 12:41:49;;;;;;;5.00;4.55;;;17.70;59.40;;;;;;5050448;28;20178;-66
2021/12/14 12:44:43;;;;;;;5.40;4.90;;;17.70;59.20;;;;;;5051149;28;20191;-66
2021/12/14 12:47:11;;;;;;;5.65;4.93;;;17.70;59.30;;;;;;5049961;28;20313;-66
2021/12/14 12:49:41;;;;;;;6.47;4.75;;;17.70;59.70;;;;;;5051512;28;20638;-64
2021/12/14 12:52:19;;;;;;;6.47;4.60;;;17.70;59.40;;;;;;5054818;28;20177;-64
2021/12/14 12:55:02;;;;;;;6.10;5.32;;;17.70;59.40;;;;;;5054455;28;20179;-64
2021/12/14 12:57:54;;;;;;;6.07;4.85;;;17.70;59.50;;;;;;5054491;28;20178;-65
2021/12/14 13:00:24;;;;;;;5.55;4.90;;;17.60;59.50;;;;;;5053652;28;20187;-65
2021/12/14 13:03:03;;;;;;;5.22;4.80;;;17.60;59.50;;;;;;5053976;28;20182;-65
2021/12/14 13:05:47;;;;;;;9.27;4.93;;;17.60;59.50;;;;;;5054116;28;20175;-67
2021/12/14 13:08:22;;;;;;;6.40;4.88;;;17.60;59.50;;;;;;5054725;28;20364;-66
2021/12/14 13:10:56;;;;;;;4.93;4.53;;;17.70;59.40;;;;;;5053846;28;20185;-64
2021/12/14 13:13:42;;;;;;;5.25;4.75;;;17.70;59.40;;;;;;5054217;28;20176;-69
2021/12/14 13:16:24;;;;;;;4.97;4.53;;;17.70;59.40;;;;;;5053836;28;20171;-68
2021/12/14 13:18:55;;;;;;;10.68;5.35;;;17.70;59.50;;;;;;5054446;28;20176;-65
2021/12/14 13:21:45;;;;;;;5.13;4.72;;;17.70;59.60;;;;;;5053730;28;20183;-64
2021/12/14 13:24:28;;;;;;;5.63;4.68;;;17.70;59.60;;;;;;5053233;28;20194;-64
2021/12/14 13:27:07;;;;;;;5.10;4.60;;;17.60;59.60;;;;;;5054089;28;20697;-65
2021/12/14 13:29:33;;;;;;;5.65;5.05;;;17.60;59.60;;;;;;5053926;28;20190;-64
2021/12/14 13:32:07;;;;;;;5.65;5.15;;;17.60;59.60;;;;;;5053446;28;20544;-65
2021/12/14 13:34:37;;;;;;;6.43;5.40;;;17.70;59.70;;;;;;5053585;28;20258;-66
2021/12/14 13:37:04;;;;;;;5.70;5.13;;;17.70;59.50;;;;;;5053348;28;20210;-66
2021/12/14 13:39:29;;;;;;;5.65;4.82;;;17.70;59.50;;;;;;5053767;28;20218;-66
2021/12/14 13:42:12;;;;;;;6.25;4.65;;;17.70;59.50;;;;;;5054106;28;20171;-65